createdAt,value
2017-11-21T00:01:11.438Z,15.17
2017-11-21T00:03:12.510Z,11.67
2017-11-21T00:05:13.587Z,15.90
2017-11-21T00:07:14.700Z,14.93
2017-11-21T00:09:15.697Z,13.10
2017-11-21T00:11:16.721Z,12.50
2017-11-21T00:13:17.843Z,13.07
2017-11-21T00:15:19.181Z,11.80
2017-11-21T00:17:20.220Z,13.10
2017-11-21T00:19:21.647Z,13.23
2017-11-21T00:21:23.259Z,14.03
2017-11-21T00:23:24.380Z,13.30
2017-11-21T00:25:25.472Z,13.13
2017-11-21T00:27:27.381Z,15.53
2017-11-21T00:29:28.605Z,14.60
2017-11-21T00:31:29.669Z,14.23
2017-11-21T00:33:30.683Z,12.87
2017-11-21T00:35:31.724Z,19.90
2017-11-21T00:37:33.055Z,15.70
2017-11-21T00:39:34.093Z,13.70
2017-11-21T00:41:35.310Z,13.87
2017-11-21T00:43:36.352Z,16.60
2017-11-21T00:45:37.605Z,14.40
2017-11-21T00:47:40.723Z,14.83
2017-11-21T00:49:41.928Z,12.93
2017-11-21T00:51:44.527Z,17.93
2017-11-21T00:53:45.991Z,13.50
2017-11-21T00:55:47.759Z,16.17
2017-11-21T00:57:48.801Z,16.77
2017-11-21T00:59:51.218Z,15.80
2017-11-21T01:01:52.192Z,16.43
2017-11-21T01:03:53.303Z,18.60
2017-11-21T01:05:55.024Z,17.00
2017-11-21T01:07:57.037Z,16.20
2017-11-21T01:09:58.376Z,18.53
2017-11-21T01:11:59.826Z,18.03
2017-11-21T01:14:01.489Z,15.40
2017-11-21T01:16:02.587Z,16.30
2017-11-21T01:18:03.680Z,16.60
2017-11-21T01:20:05.535Z,21.50
2017-11-21T01:22:07.426Z,30.20
2017-11-21T01:24:08.424Z,25.93
2017-11-21T01:26:09.457Z,28.60
2017-11-21T01:28:10.456Z,35.37
2017-11-21T01:30:11.446Z,33.90
2017-11-21T01:32:12.536Z,34.90
2017-11-21T01:34:15.730Z,49.63
2017-11-21T01:36:18.049Z,79.67
2017-11-21T01:38:19.122Z,88.87
2017-11-21T01:40:22.400Z,85.23
2017-11-21T01:42:23.569Z,75.43
2017-11-21T01:44:24.699Z,91.20
2017-11-21T01:46:25.820Z,85.97
2017-11-21T01:48:26.862Z,71.67
2017-11-21T01:50:27.889Z,69.67
2017-11-21T01:52:28.905Z,94.23
2017-11-21T01:54:29.892Z,78.40
2017-11-21T01:56:31.597Z,81.53
2017-11-21T01:58:35.689Z,82.33
2017-11-21T02:00:36.757Z,87.33
2017-11-21T02:02:37.920Z,88.07
2017-11-21T02:04:38.930Z,64.67
2017-11-21T02:06:39.987Z,77.40
2017-11-21T02:08:40.993Z,87.20
2017-11-21T02:10:41.974Z,86.93
2017-11-21T02:12:43.074Z,88.90
2017-11-21T02:14:44.565Z,80.53
2017-11-21T02:16:45.821Z,106.77
2017-11-21T02:18:46.825Z,88.37
2017-11-21T02:20:47.886Z,79.47
2017-11-21T02:22:49.456Z,113.93
2017-11-21T02:24:50.607Z,134.93
2017-11-21T02:26:51.605Z,125.20
2017-11-21T02:28:52.901Z,112.37
2017-11-21T02:30:55.006Z,114.53
2017-11-21T02:32:56.046Z,102.50
2017-11-21T02:34:57.165Z,113.30
2017-11-21T02:36:58.222Z,127.30
2017-11-21T02:38:59.314Z,120.87
2017-11-21T02:41:00.400Z,132.47
2017-11-21T02:43:01.434Z,120.93
2017-11-21T02:45:02.461Z,127.90
2017-11-21T02:47:03.524Z,149.43
2017-11-21T02:49:04.561Z,115.53
2017-11-21T02:51:05.555Z,97.80
2017-11-21T02:53:06.564Z,111.17
2017-11-21T02:55:07.542Z,102.77
2017-11-21T02:57:09.930Z,118.10
2017-11-21T02:59:10.958Z,110.93
2017-11-21T03:01:11.923Z,116.30
2017-11-21T03:03:12.968Z,137.60
2017-11-21T03:05:14.119Z,99.10
2017-11-21T03:07:15.209Z,117.30
2017-11-21T03:09:16.250Z,140.33
2017-11-21T03:11:17.294Z,126.73
2017-11-21T03:13:18.378Z,117.50
2017-11-21T03:15:19.390Z,138.90
2017-11-21T03:17:20.368Z,108.03
2017-11-21T03:19:21.437Z,121.90
2017-11-21T03:21:34.967Z,145.70
2017-11-21T03:23:48.515Z,115.40
2017-11-21T03:26:01.797Z,108.27
2017-11-21T03:28:03.967Z,151.70
2017-11-21T03:30:05.029Z,148.70
2017-11-21T03:32:11.703Z,158.67
2017-11-21T03:34:12.773Z,133.93
2017-11-21T03:36:13.822Z,171.20
2017-11-21T03:38:15.602Z,164.13
2017-11-21T03:40:16.637Z,161.30
2017-11-21T03:42:17.671Z,131.37
2017-11-21T03:44:18.681Z,162.83
2017-11-21T03:46:19.714Z,161.03
2017-11-21T03:48:20.869Z,145.60
2017-11-21T03:50:21.830Z,142.50
2017-11-21T03:52:22.933Z,158.57
2017-11-21T03:54:23.982Z,146.27
2017-11-21T03:56:25.015Z,151.87
2017-11-21T03:58:26.053Z,149.60
2017-11-21T04:00:27.096Z,107.10
2017-11-21T04:02:28.147Z,123.73
2017-11-21T04:04:29.380Z,110.53
2017-11-21T04:06:30.453Z,127.10
2017-11-21T04:08:31.612Z,88.33
2017-11-21T04:10:32.650Z,68.87
2017-11-21T04:12:33.651Z,68.00
2017-11-21T04:14:34.879Z,104.80
2017-11-21T04:16:35.928Z,88.17
2017-11-21T04:18:37.007Z,85.57
2017-11-21T04:20:38.064Z,105.13
2017-11-21T04:22:39.045Z,78.90
2017-11-21T04:24:40.066Z,107.10
2017-11-21T04:26:41.061Z,88.80
2017-11-21T04:28:42.071Z,91.90
2017-11-21T04:30:43.066Z,93.40
2017-11-21T04:32:44.061Z,83.77
2017-11-21T04:34:45.034Z,73.43
2017-11-21T04:36:46.054Z,82.80
2017-11-21T04:38:47.101Z,86.23
2017-11-21T04:40:48.149Z,89.93
2017-11-21T04:42:49.876Z,79.20
2017-11-21T04:44:51.008Z,71.50
2017-11-21T04:46:52.033Z,85.83
2017-11-21T04:48:53.027Z,58.90
2017-11-21T04:50:54.048Z,48.37
2017-11-21T04:52:55.028Z,52.20
2017-11-21T04:54:56.021Z,53.23
2017-11-21T04:56:57.790Z,52.60
2017-11-21T04:58:58.762Z,86.37
2017-11-21T05:00:59.739Z,54.73
2017-11-21T05:03:00.871Z,45.60
2017-11-21T05:05:01.898Z,44.10
2017-11-21T05:07:03.095Z,38.90
2017-11-21T05:09:04.122Z,41.43
2017-11-21T05:11:06.676Z,46.93
2017-11-21T05:13:07.715Z,47.30
2017-11-21T05:15:08.702Z,47.70
2017-11-21T05:17:09.832Z,48.87
2017-11-21T05:19:10.942Z,51.77
2017-11-21T05:21:12.077Z,51.83
2017-11-21T05:23:13.069Z,46.20
2017-11-21T05:25:14.143Z,45.90
2017-11-21T05:27:15.195Z,49.17
2017-11-21T05:29:16.179Z,55.00
2017-11-21T05:31:17.284Z,60.83
2017-11-21T05:33:30.624Z,61.80
2017-11-21T05:35:31.913Z,44.07
2017-11-21T05:37:33.051Z,55.43
2017-11-21T05:39:34.053Z,43.57
2017-11-21T05:41:35.089Z,50.20
2017-11-21T05:43:36.167Z,56.83
2017-11-21T05:45:37.185Z,43.53
2017-11-21T05:47:38.279Z,59.73
2017-11-21T05:49:39.316Z,53.53
2017-11-21T05:51:40.358Z,50.47
2017-11-21T05:53:41.394Z,58.47
2017-11-21T05:55:42.439Z,47.47
2017-11-21T05:57:43.518Z,59.97
2017-11-21T05:59:44.562Z,53.00
2017-11-21T06:01:46.525Z,41.83
2017-11-21T06:03:48.524Z,56.63
2017-11-21T06:05:51.751Z,50.67
2017-11-21T06:07:52.845Z,55.60
2017-11-21T06:09:54.181Z,46.53
2017-11-21T06:11:55.364Z,65.00
2017-11-21T06:14:00.447Z,43.97
2017-11-21T06:16:01.503Z,51.37
2017-11-21T06:18:02.594Z,42.80
2017-11-21T06:20:03.632Z,60.47
2017-11-21T06:22:05.641Z,55.90
2017-11-21T06:24:08.209Z,40.47
2017-11-21T06:26:09.316Z,42.90
2017-11-21T06:28:10.437Z,40.27
2017-11-21T06:30:11.485Z,42.80
2017-11-21T06:32:12.525Z,59.57
2017-11-21T06:34:14.351Z,67.87
2017-11-21T06:36:15.418Z,46.77
2017-11-21T06:38:16.564Z,35.57
2017-11-21T06:40:17.725Z,47.10
2017-11-21T06:42:18.718Z,40.27
2017-11-21T06:44:19.796Z,38.57
2017-11-21T06:46:20.834Z,53.03
2017-11-21T06:48:21.836Z,53.20
2017-11-21T06:50:22.954Z,60.67
2017-11-21T06:52:24.044Z,52.50
2017-11-21T06:54:25.165Z,53.37
2017-11-21T06:56:26.239Z,36.97
2017-11-21T06:58:27.319Z,45.20
2017-11-21T07:00:28.323Z,35.07
2017-11-21T07:02:29.386Z,36.30
2017-11-21T07:04:30.467Z,37.00
2017-11-21T07:06:31.564Z,34.77
2017-11-21T07:08:32.577Z,29.67
2017-11-21T07:10:34.334Z,29.70
2017-11-21T07:12:36.072Z,25.70
2017-11-21T07:14:37.174Z,30.90
2017-11-21T07:16:38.154Z,37.70
2017-11-21T07:18:39.141Z,36.40
2017-11-21T07:20:40.194Z,29.90
2017-11-21T07:22:41.189Z,28.43
2017-11-21T07:24:42.230Z,20.60
2017-11-21T07:26:43.238Z,30.23
2017-11-21T07:28:44.261Z,37.60
2017-11-21T07:30:45.247Z,24.67
2017-11-21T07:32:46.313Z,28.13
2017-11-21T07:34:47.309Z,37.00
2017-11-21T07:36:48.347Z,31.43
2017-11-21T07:38:49.366Z,37.47
2017-11-21T07:40:50.332Z,23.20
2017-11-21T07:42:51.383Z,33.40
2017-11-21T07:44:52.399Z,41.97
2017-11-21T07:46:53.412Z,41.63
2017-11-21T07:48:55.817Z,33.00
2017-11-21T07:50:57.052Z,31.37
2017-11-21T07:52:58.607Z,33.57
2017-11-21T07:54:59.656Z,24.90
2017-11-21T07:57:00.778Z,23.27
2017-11-21T07:59:03.863Z,38.50
2017-11-21T08:01:05.058Z,23.73
2017-11-21T08:03:06.119Z,21.80
2017-11-21T08:05:07.678Z,25.83
2017-11-21T08:07:08.833Z,30.63
2017-11-21T08:09:10.290Z,23.87
2017-11-21T08:11:11.432Z,14.93
2017-11-21T08:13:12.664Z,27.87
2017-11-21T08:15:13.955Z,20.73
2017-11-21T08:17:15.020Z,21.00
2017-11-21T08:19:16.130Z,27.60
2017-11-21T08:21:18.730Z,20.33
2017-11-21T08:23:20.506Z,26.80
2017-11-21T08:25:21.650Z,24.53
2017-11-21T08:27:22.652Z,28.27
2017-11-21T08:29:23.720Z,27.23
2017-11-21T08:31:24.839Z,33.73
2017-11-21T08:33:25.900Z,38.33
2017-11-21T08:35:27.414Z,40.33
2017-11-21T08:37:28.588Z,35.53
2017-11-21T08:39:30.537Z,27.40
2017-11-21T08:41:31.638Z,35.03
2017-11-21T08:43:32.728Z,30.83
2017-11-21T08:45:34.458Z,43.73
2017-11-21T08:47:35.899Z,53.67
2017-11-21T08:49:37.473Z,64.63
2017-11-21T08:51:38.700Z,53.53
2017-11-21T08:53:39.723Z,65.83
2017-11-21T08:55:40.790Z,64.43
2017-11-21T08:57:43.504Z,89.90
2017-11-21T08:59:44.833Z,60.63
2017-11-21T09:01:45.886Z,67.87
2017-11-21T09:03:46.851Z,80.67
2017-11-21T09:05:48.374Z,71.50
2017-11-21T09:07:49.408Z,56.37
2017-11-21T09:09:51.134Z,85.80
2017-11-21T09:11:52.190Z,67.57
2017-11-21T09:13:53.255Z,85.57
2017-11-21T09:15:55.257Z,72.57
2017-11-21T09:20:34.497Z,67.67
2017-11-21T09:22:36.464Z,64.33
2017-11-21T09:24:37.625Z,72.80
2017-11-21T09:26:38.722Z,95.43
2017-11-21T09:28:39.813Z,129.50
2017-11-21T09:30:40.952Z,116.30
2017-11-21T09:32:43.685Z,119.40
2017-11-21T09:34:46.519Z,142.43
2017-11-21T09:36:48.365Z,147.53
2017-11-21T09:38:49.338Z,125.60
2017-11-21T09:40:50.574Z,97.50
2017-11-21T09:42:51.652Z,124.40
2017-11-21T09:44:52.751Z,109.07
2017-11-21T09:46:53.741Z,99.00
2017-11-21T09:48:54.720Z,103.97
2017-11-21T09:50:55.805Z,131.03
2017-11-21T09:52:57.507Z,107.03
2017-11-21T09:54:58.456Z,106.23
2017-11-21T09:56:59.495Z,114.37
2017-11-21T09:59:00.626Z,98.53
2017-11-21T10:01:01.683Z,99.87
2017-11-21T10:03:02.697Z,101.67
2017-11-21T10:05:04.522Z,100.93
2017-11-21T10:07:05.570Z,93.00
2017-11-21T10:09:06.564Z,96.70
2017-11-21T10:11:08.734Z,95.57
2017-11-21T10:13:09.991Z,82.50
2017-11-21T10:15:11.745Z,103.07
2017-11-21T10:17:12.788Z,99.17
2017-11-21T10:19:13.790Z,140.77
2017-11-21T10:21:14.953Z,108.13
2017-11-21T10:23:17.012Z,100.27
2017-11-21T10:25:17.991Z,93.07
2017-11-21T10:27:18.957Z,110.13
2017-11-21T10:29:20.001Z,74.83
2017-11-21T10:31:21.737Z,89.00
2017-11-21T10:33:22.753Z,81.33
2017-11-21T10:35:23.749Z,103.37
2017-11-21T10:37:24.733Z,107.40
2017-11-21T10:39:25.770Z,107.57
2017-11-21T10:41:26.817Z,95.90
2017-11-21T10:43:27.814Z,111.80
2017-11-21T10:45:28.824Z,107.53
2017-11-21T10:47:29.845Z,116.40
2017-11-21T10:49:31.587Z,103.67
2017-11-21T10:51:32.566Z,90.53
2017-11-21T10:53:33.616Z,115.90
2017-11-21T10:55:34.699Z,126.97
2017-11-21T10:57:35.701Z,109.83
2017-11-21T10:59:36.711Z,102.00
2017-11-21T11:01:37.695Z,121.03
2017-11-21T11:03:38.772Z,122.90
2017-11-21T11:05:39.873Z,112.57
2017-11-21T11:07:40.976Z,107.60
2017-11-21T11:09:42.094Z,106.40
2017-11-21T11:11:43.759Z,112.83
2017-11-21T11:13:44.919Z,101.90
2017-11-21T11:15:45.940Z,103.97
2017-11-21T11:17:47.023Z,95.53
2017-11-21T11:19:48.045Z,98.00
2017-11-21T11:21:49.138Z,95.57
2017-11-21T11:23:50.364Z,93.80
2017-11-21T11:25:51.434Z,114.13
2017-11-21T11:27:52.716Z,114.03
2017-11-21T11:29:57.105Z,94.87
2017-11-21T11:31:58.272Z,95.23
2017-11-21T11:33:59.522Z,95.87
2017-11-21T11:36:00.854Z,115.80
2017-11-21T11:38:02.837Z,107.73
2017-11-21T11:40:05.542Z,92.27
2017-11-21T11:42:06.791Z,87.63
2017-11-21T11:44:07.854Z,114.23
2017-11-21T11:46:08.864Z,90.53
2017-11-21T11:48:10.429Z,110.97
2017-11-21T11:50:11.478Z,77.23
2017-11-21T11:52:12.534Z,85.10
2017-11-21T11:54:14.294Z,90.83
2017-11-21T11:56:16.069Z,86.83
2017-11-21T11:58:18.489Z,73.00
2017-11-21T12:00:20.093Z,71.50
2017-11-21T12:02:21.203Z,68.17
2017-11-21T12:04:23.197Z,68.13
2017-11-21T12:06:26.744Z,70.50
2017-11-21T12:08:29.613Z,75.63
2017-11-21T12:10:30.731Z,75.37
2017-11-21T12:15:06.664Z,74.53
2017-11-21T12:19:44.995Z,51.17
2017-11-21T12:21:46.282Z,64.07
2017-11-21T12:23:52.473Z,60.90
2017-11-21T12:25:53.660Z,66.93
2017-11-21T12:27:54.735Z,68.73
2017-11-21T12:29:55.984Z,68.27
2017-11-21T12:31:57.536Z,71.27
2017-11-21T12:33:59.423Z,65.77
2017-11-21T12:36:00.518Z,67.30
2017-11-21T12:38:01.611Z,63.47
2017-11-21T12:40:02.672Z,67.50
2017-11-21T12:44:41.841Z,69.77
2017-11-21T12:48:56.635Z,52.47
2017-11-21T12:50:57.771Z,66.13
2017-11-21T12:52:58.884Z,63.63
2017-11-21T12:55:02.890Z,59.77
2017-11-21T12:57:04.911Z,57.63
2017-11-21T12:59:06.414Z,65.17
2017-11-21T13:01:09.271Z,67.07
2017-11-21T13:03:10.372Z,67.97
2017-11-21T13:05:11.447Z,76.10
2017-11-21T13:07:12.506Z,60.13
2017-11-21T13:09:13.640Z,61.80
2017-11-21T13:11:14.754Z,67.77
2017-11-21T13:13:15.840Z,66.70
2017-11-21T13:15:18.238Z,60.90
2017-11-21T13:17:19.332Z,62.67
2017-11-21T13:19:20.665Z,64.87
2017-11-21T13:21:23.706Z,67.33
2017-11-21T13:23:24.755Z,66.30
2017-11-21T13:25:25.782Z,64.07
2017-11-21T13:27:26.785Z,52.50
2017-11-21T13:29:27.783Z,52.97
2017-11-21T13:31:28.874Z,59.73
2017-11-21T13:33:32.289Z,51.97
2017-11-21T13:35:33.366Z,61.10
2017-11-21T13:37:34.442Z,58.77
2017-11-21T13:39:35.492Z,51.37
2017-11-21T13:41:36.487Z,60.90
2017-11-21T13:43:37.532Z,59.50
2017-11-21T13:45:38.554Z,53.97
2017-11-21T13:47:39.815Z,54.70
2017-11-21T13:49:40.903Z,57.93
2017-11-21T13:51:42.025Z,60.10
2017-11-21T13:53:43.256Z,59.37
2017-11-21T13:55:45.866Z,55.00
2017-11-21T13:57:46.981Z,58.03
2017-11-21T13:59:48.011Z,59.07
2017-11-21T14:01:49.132Z,43.00
2017-11-21T14:03:50.399Z,56.47
2017-11-21T14:05:52.407Z,57.27
2017-11-21T14:07:53.777Z,53.87
2017-11-21T14:09:54.798Z,61.57
2017-11-21T14:11:55.821Z,48.40
2017-11-21T14:13:56.879Z,41.80
2017-11-21T14:15:57.962Z,45.27
2017-11-21T14:17:58.998Z,50.30
2017-11-21T14:20:01.708Z,46.83
2017-11-21T14:22:03.221Z,45.63
2017-11-21T14:24:04.258Z,47.83
2017-11-21T14:26:05.983Z,51.23
2017-11-21T14:28:07.127Z,59.50
2017-11-21T14:32:46.669Z,55.13
2017-11-21T14:34:47.831Z,50.80
2017-11-21T14:39:41.041Z,44.37
2017-11-21T14:41:42.490Z,78.18
2017-11-21T14:43:45.215Z,58.17
2017-11-21T14:45:46.942Z,45.23
2017-11-21T14:47:57.172Z,40.30
2017-11-21T14:50:14.425Z,39.60
2017-11-21T14:59:50.642Z,18.67
2017-11-21T15:01:53.921Z,20.50
2017-11-21T15:03:56.210Z,19.03
2017-11-21T15:20:03.106Z,12.90
2017-11-21T15:22:07.459Z,14.43
2017-11-21T15:36:32.775Z,11.07
2017-11-21T15:38:33.817Z,14.93
2017-11-21T15:40:34.921Z,8.13
2017-11-21T15:42:36.035Z,8.20
2017-11-21T15:44:37.263Z,7.50
2017-11-21T15:46:38.299Z,7.33
2017-11-21T15:48:39.542Z,6.87
2017-11-21T15:50:40.579Z,13.10
2017-11-21T15:52:41.651Z,5.97
2017-11-21T15:54:43.183Z,5.57
2017-11-21T15:56:45.489Z,5.07
2017-11-21T15:58:46.617Z,7.93
2017-11-21T16:03:22.562Z,5.60
2017-11-21T16:05:23.662Z,5.23
2017-11-21T16:07:24.778Z,6.50
2017-11-21T16:11:47.201Z,4.27
2017-11-21T16:13:49.187Z,6.07
2017-11-21T16:15:50.270Z,3.87
2017-11-21T16:20:29.565Z,6.77
2017-11-21T16:22:45.030Z,8.63
2017-11-21T16:24:46.077Z,9.63
2017-11-21T16:26:47.278Z,7.47
2017-11-21T16:28:48.394Z,4.70
2017-11-21T16:31:00.886Z,14.80
2017-11-21T16:33:18.984Z,7.97
2017-11-21T16:35:43.383Z,13.07
2017-11-21T16:42:40.836Z,8.13
2017-11-21T16:44:49.075Z,10.10
2017-11-21T16:46:53.266Z,12.47
2017-11-21T16:49:13.717Z,10.97
2017-11-21T16:51:16.769Z,10.33
2017-11-21T16:55:52.409Z,7.40
2017-11-21T16:58:06.662Z,10.90
2017-11-21T17:00:09.888Z,15.13
2017-11-21T17:02:11.471Z,10.50
2017-11-21T17:04:16.005Z,9.70
2017-11-21T17:06:17.914Z,8.93
2017-11-21T17:08:29.272Z,10.80
2017-11-21T17:13:00.021Z,10.70
2017-11-21T17:15:08.063Z,13.90
2017-11-21T17:17:10.601Z,11.60
2017-11-21T17:29:27.520Z,9.30
2017-11-21T17:31:51.110Z,8.90
2017-11-21T17:33:53.382Z,10.60
2017-11-21T17:35:57.297Z,12.03
2017-11-21T17:38:22.664Z,9.97
2017-11-21T17:42:54.858Z,13.07
2017-11-21T17:50:22.973Z,13.27
2017-11-21T17:52:41.068Z,13.10
2017-11-21T17:54:42.292Z,16.23
2017-11-21T18:01:41.992Z,17.30
2017-11-21T18:09:44.967Z,18.60
2017-11-21T18:14:16.986Z,20.53
2017-11-21T18:19:03.802Z,20.30
2017-11-21T18:23:33.271Z,21.87
2017-11-21T18:30:45.683Z,23.50
2017-11-21T18:33:11.972Z,27.03
2017-11-21T18:37:51.995Z,25.97
2017-11-21T18:42:10.196Z,32.47
2017-11-21T18:46:39.941Z,38.77
2017-11-21T18:51:20.810Z,33.47
2017-11-21T18:53:22.820Z,32.37
2017-11-21T19:00:31.928Z,29.50
2017-11-21T19:02:44.986Z,30.27
2017-11-21T19:04:52.217Z,39.10
2017-11-21T19:07:15.698Z,32.17
2017-11-21T19:11:47.502Z,31.07
2017-11-21T19:24:27.040Z,31.40
2017-11-21T19:29:06.227Z,40.20
2017-11-21T19:31:30.761Z,33.77
2017-11-21T19:33:37.429Z,43.78
2017-11-21T19:56:14.233Z,44.37
2017-11-21T19:58:17.633Z,43.30
2017-11-21T20:00:44.263Z,49.43
2017-11-21T20:05:12.883Z,46.27
2017-11-21T20:12:34.015Z,43.67
2017-11-21T20:18:57.687Z,42.47
2017-11-21T20:21:17.986Z,55.87
2017-11-21T20:23:23.174Z,62.63
2017-11-21T20:28:11.874Z,57.30
2017-11-21T20:32:51.205Z,64.73
2017-11-21T20:37:41.327Z,61.03
2017-11-21T20:42:13.878Z,75.13
2017-11-21T20:44:20.245Z,54.57
2017-11-21T20:46:36.510Z,66.00
